Time;durP1;ratioP1;P1;durP2;ratioP2;P2;SDS_P1;SDS_P2;PMS_P1;PMS_P2;Temp;Humidity;BMP_temperature;BMP_pressure;BME280_temperature;BME280_humidity;BME280_pressure;Samples;Min_cycle;Max_cycle;Signal;HPM_P1;HPM_P2
2024/03/09 00:01:07;;;;;;;;;;;2.40;99.90;;;;;;4984118;28;20110;-64
2024/03/09 00:03:39;;;;;;;;;;;2.30;99.90;;;;;;4976631;28;20016;-64
2024/03/09 00:06:12;;;;;;;;;;;2.30;99.90;;;;;;4981266;28;20017;-64
2024/03/09 00:08:38;;;;;;;;;;;2.30;99.90;;;;;;4980161;28;20020;-64
2024/03/09 00:11:10;;;;;;;;;;;2.30;99.90;;;;;;4986617;28;20025;-64
2024/03/09 00:13:43;;;;;;;;;;;2.30;99.90;;;;;;4985881;28;19933;-64
2024/03/09 00:16:14;;;;;;;;;;;2.30;99.90;;;;;;4983396;28;20026;-64
2024/03/09 00:18:46;;;;;;;;;;;2.20;99.90;;;;;;4975548;28;20459;-64
2024/03/09 00:21:18;;;;;;;;;;;2.20;99.90;;;;;;4987483;28;20129;-64
2024/03/09 00:23:51;;;;;;;;;;;2.20;99.90;;;;;;4966525;28;19925;-64
2024/03/09 00:26:23;;;;;;;;;;;2.10;99.90;;;;;;4977518;28;19996;-64
2024/03/09 00:28:54;;;;;;;;;;;2.10;99.90;;;;;;4980792;28;19936;-64
2024/03/09 00:31:26;;;;;;;;;;;2.00;99.90;;;;;;4977085;28;19939;-64
2024/03/09 00:33:58;;;;;;;;;;;2.00;99.90;;;;;;4978949;28;20000;-64
2024/03/09 00:36:30;;;;;;;;;;;2.00;99.90;;;;;;4974824;28;19929;-63
2024/03/09 00:39:03;;;;;;;;;;;2.00;99.90;;;;;;4981999;28;20321;-64
2024/03/09 00:41:35;;;;;;;;;;;2.00;99.90;;;;;;4986349;28;19926;-64
2024/03/09 00:44:06;;;;;;;;;;;2.00;99.90;;;;;;4986097;28;20037;-64
2024/03/09 00:46:34;;;;;;;;;;;2.00;99.90;;;;;;4986208;28;19926;-64
2024/03/09 00:49:02;;;;;;;;;;;2.00;99.90;;;;;;4985678;28;19965;-64
2024/03/09 00:51:30;;;;;;;;;;;1.90;99.90;;;;;;4988278;28;19932;-63
2024/03/09 00:53:57;;;;;;;;;;;2.00;99.90;;;;;;4983022;28;20044;-64
2024/03/09 00:56:29;;;;;;;;;;;2.00;99.90;;;;;;4976977;28;19926;-64
2024/03/09 00:59:01;;;;;;;;;;;1.90;99.90;;;;;;4981803;28;20401;-63
2024/03/09 01:01:33;;;;;;;;;;;2.00;99.90;;;;;;4973919;28;20390;-65
2024/03/09 01:04:06;;;;;;;;;;;2.00;99.90;;;;;;4967136;28;20398;-64
2024/03/09 01:06:33;;;;;;;;;;;1.90;99.90;;;;;;4985673;28;20437;-64
2024/03/09 01:09:05;;;;;;;;;;;1.90;99.90;;;;;;4985733;28;19929;-64
2024/03/09 01:11:31;;;;;;;;;;;1.90;99.90;;;;;;4975265;28;20413;-64
2024/03/09 01:14:03;;;;;;;;;;;1.80;99.90;;;;;;4985524;28;19933;-64
2024/03/09 01:16:35;;;;;;;;;;;1.90;99.90;;;;;;4982492;28;19933;-64
2024/03/09 01:19:07;;;;;;;;;;;1.90;99.90;;;;;;4974034;28;19932;-64
2024/03/09 01:21:34;;;;;;;;;;;1.80;99.90;;;;;;4979515;28;19930;-63
2024/03/09 01:24:06;;;;;;;;;;;1.80;99.90;;;;;;4981076;28;19976;-64
2024/03/09 01:26:38;;;;;;;;;;;1.80;99.90;;;;;;4974092;28;19930;-69
2024/03/09 01:29:10;;;;;;;;;;;1.90;99.90;;;;;;4986640;28;19932;-64
2024/03/09 01:31:42;;;;;;;;;;;1.90;99.90;;;;;;4983372;28;19937;-64
2024/03/09 01:34:15;;;;;;;;;;;1.90;99.90;;;;;;4972375;28;19929;-64
2024/03/09 01:36:47;;;;;;;;;;;1.90;99.90;;;;;;4976169;28;19926;-64
2024/03/09 01:39:18;;;;;;;;;;;1.90;99.90;;;;;;4984984;28;19930;-64
2024/03/09 01:41:45;;;;;;;;;;;2.00;99.90;;;;;;4965746;28;19930;-64
2024/03/09 01:44:17;;;;;;;;;;;2.00;99.90;;;;;;4981475;28;19932;-64
2024/03/09 01:46:50;;;;;;;;;;;2.00;99.90;;;;;;4983400;28;19942;-64
2024/03/09 01:49:22;;;;;;;;;;;2.00;99.90;;;;;;4959264;28;19926;-64
2024/03/09 01:51:55;;;;;;;;;;;2.00;99.90;;;;;;4983096;28;19933;-64
2024/03/09 01:54:25;;;;;;;;;;;2.00;99.90;;;;;;4964163;28;19926;-64
2024/03/09 01:56:57;;;;;;;;;;;2.00;99.90;;;;;;4980965;28;19934;-63
2024/03/09 01:59:29;;;;;;;;;;;1.90;99.90;;;;;;4972975;28;19932;-64
2024/03/09 02:02:01;;;;;;;;;;;2.00;99.90;;;;;;4983419;28;19984;-64
2024/03/09 02:04:34;;;;;;;;;;;1.90;99.90;;;;;;4966569;28;20398;-64
2024/03/09 02:07:02;;;;;;;;;;;1.90;99.90;;;;;;4986257;28;19926;-64
2024/03/09 02:09:34;;;;;;;;;;;1.90;99.90;;;;;;4976194;28;19934;-64
2024/03/09 02:12:06;;;;;;;;;;;1.90;99.90;;;;;;4984934;28;19957;-63
2024/03/09 02:14:38;;;;;;;;;;;1.80;99.90;;;;;;4978765;28;19930;-64
2024/03/09 02:17:10;;;;;;;;;;;1.80;99.90;;;;;;4968851;28;19925;-64
2024/03/09 02:19:42;;;;;;;;;;;1.70;99.90;;;;;;4984637;28;19933;-64
2024/03/09 02:22:17;;;;;;;;;;;1.70;99.90;;;;;;4975872;28;20603;-64
2024/03/09 02:24:54;;;;;;;;;;;1.70;99.90;;;;;;4987647;28;19953;-64
2024/03/09 02:27:26;;;;;;;;;;;1.70;99.90;;;;;;4986461;28;21669;-64
2024/03/09 02:29:53;;;;;;;;;;;1.60;99.90;;;;;;4987689;28;19937;-64
2024/03/09 02:32:25;;;;;;;;;;;1.60;99.90;;;;;;4990802;28;20279;-64
2024/03/09 02:34:52;;;;;;;;;;;1.50;99.90;;;;;;4976563;28;19934;-64
2024/03/09 02:37:19;;;;;;;;;;;1.50;99.90;;;;;;4975720;28;19930;-64
2024/03/09 02:39:51;;;;;;;;;;;1.50;99.90;;;;;;4988804;28;19926;-64
2024/03/09 02:42:23;;;;;;;;;;;1.50;99.90;;;;;;4980418;28;19934;-64
2024/03/09 02:44:56;;;;;;;;;;;1.50;99.90;;;;;;4980363;28;20017;-64
2024/03/09 02:47:27;;;;;;;;;;;1.50;99.90;;;;;;4975808;28;19930;-64
2024/03/09 02:49:54;;;;;;;;;;;1.50;99.90;;;;;;4985016;28;20529;-64
2024/03/09 02:52:27;;;;;;;;;;;1.40;99.90;;;;;;4987314;28;19927;-64
2024/03/09 02:54:53;;;;;;;;;;;1.40;99.90;;;;;;4986975;28;19925;-64
2024/03/09 02:57:26;;;;;;;;;;;1.40;99.90;;;;;;4986231;28;20007;-64
2024/03/09 03:00:00;;;;;;;;;;;1.40;99.90;;;;;;4985469;28;19934;-64
2024/03/09 03:05:17;;;;;;;;;;;1.40;99.90;;;;;;4984319;28;19930;-64
2024/03/09 03:07:49;;;;;;;;;;;1.30;99.90;;;;;;4981342;28;19926;-64
2024/03/09 03:10:21;;;;;;;;;;;1.30;99.90;;;;;;4976420;28;19926;-64
2024/03/09 03:12:52;;;;;;;;;;;1.30;99.90;;;;;;4983967;28;20029;-64
2024/03/09 03:15:25;;;;;;;;;;;1.30;99.90;;;;;;4984381;28;19937;-64
2024/03/09 03:17:57;;;;;;;;;;;1.30;99.90;;;;;;4988555;28;19933;-64
2024/03/09 03:20:23;;;;;;;;;;;1.20;99.90;;;;;;4984801;28;19932;-64
2024/03/09 03:22:58;;;;;;;;;;;1.10;99.90;;;;;;4975945;28;19926;-63
2024/03/09 03:25:30;;;;;;;;;;;1.20;99.90;;;;;;4975858;28;20406;-64
2024/03/09 03:28:02;;;;;;;;;;;1.20;99.90;;;;;;4976341;28;19961;-64
2024/03/09 03:30:36;;;;;;;;;;;1.20;99.90;;;;;;4979213;28;19988;-64
2024/03/09 03:33:10;;;;;;;;;;;1.30;99.90;;;;;;4973761;28;19926;-64
2024/03/09 03:35:41;;;;;;;;;;;1.30;99.90;;;;;;4981161;28;19926;-64
2024/03/09 03:38:13;;;;;;;;;;;1.30;99.90;;;;;;4978950;28;19933;-64
2024/03/09 03:40:45;;;;;;;;;;;1.30;99.90;;;;;;4994673;28;19997;-64
2024/03/09 03:43:16;;;;;;;;;;;1.40;99.90;;;;;;4978421;28;19925;-64
2024/03/09 03:45:48;;;;;;;;;;;1.40;99.90;;;;;;4968766;28;20354;-63
2024/03/09 03:48:20;;;;;;;;;;;1.40;99.90;;;;;;4982266;28;19969;-64
2024/03/09 03:50:46;;;;;;;;;;;1.40;99.90;;;;;;4987632;28;20312;-63
2024/03/09 03:53:19;;;;;;;;;;;1.40;99.90;;;;;;4984102;28;19930;-64
2024/03/09 03:55:47;;;;;;;;;;;1.30;99.90;;;;;;4981350;28;19949;-64
2024/03/09 03:58:19;;;;;;;;;;;1.30;99.90;;;;;;4982435;28;19941;-64
2024/03/09 04:00:51;;;;;;;;;;;1.20;99.90;;;;;;4979484;28;20414;-64
2024/03/09 04:03:26;;;;;;;;;;;1.20;99.90;;;;;;4978841;28;20313;-64
2024/03/09 04:05:59;;;;;;;;;;;1.20;99.90;;;;;;4984442;28;19926;-64
2024/03/09 04:08:31;;;;;;;;;;;1.20;99.90;;;;;;4985535;28;19926;-64
2024/03/09 04:11:03;;;;;;;;;;;1.20;99.90;;;;;;4987259;28;19966;-64
2024/03/09 04:13:35;;;;;;;;;;;1.20;99.90;;;;;;4975145;28;19930;-64
2024/03/09 04:16:07;;;;;;;;;;;1.20;99.90;;;;;;4976485;28;19937;-64
2024/03/09 04:18:36;;;;;;;;;;;1.20;99.90;;;;;;4974742;28;19930;-64
2024/03/09 04:21:12;;;;;;;;;;;1.20;99.90;;;;;;4990883;28;19934;-64
2024/03/09 04:23:45;;;;;;;;;;;1.10;99.90;;;;;;4974286;28;19926;-64
2024/03/09 04:26:16;;;;;;;;;;;1.10;99.90;;;;;;4976903;28;20004;-63
2024/03/09 04:28:48;;;;;;;;;;;1.00;99.90;;;;;;4980580;28;20410;-64
2024/03/09 04:31:20;;;;;;;;;;;0.90;99.90;;;;;;4980960;28;19973;-64
2024/03/09 04:33:52;;;;;;;;;;;0.80;99.90;;;;;;4967313;28;20402;-64
2024/03/09 04:36:29;;;;;;;;;;;0.80;99.90;;;;;;4986013;28;19961;-63
2024/03/09 04:39:00;;;;;;;;;;;0.80;99.90;;;;;;4985738;28;19966;-64
2024/03/09 04:41:32;;;;;;;;;;;0.80;99.90;;;;;;4985636;28;20454;-64
2024/03/09 04:44:04;;;;;;;;;;;0.70;99.90;;;;;;4988466;28;19981;-64
2024/03/09 04:46:36;;;;;;;;;;;0.70;99.90;;;;;;4985559;28;19934;-64
2024/03/09 04:49:11;;;;;;;;;;;0.60;99.90;;;;;;4979738;28;19933;-64
2024/03/09 04:51:43;;;;;;;;;;;0.50;99.90;;;;;;4973272;28;19926;-63
2024/03/09 04:54:18;;;;;;;;;;;0.50;99.90;;;;;;4983567;28;19996;-64
2024/03/09 04:56:50;;;;;;;;;;;0.50;99.90;;;;;;4977777;28;19933;-64
2024/03/09 04:59:22;;;;;;;;;;;0.60;99.90;;;;;;4983762;28;19926;-64
2024/03/09 05:01:54;;;;;;;;;;;0.60;99.90;;;;;;4981000;28;19926;-64
2024/03/09 05:04:21;;;;;;;;;;;0.60;99.90;;;;;;4984774;28;20380;-64
2024/03/09 05:06:52;;;;;;;;;;;0.60;99.90;;;;;;4985786;28;19932;-63
2024/03/09 05:09:25;;;;;;;;;;;0.60;99.90;;;;;;4969532;28;19941;-64
2024/03/09 05:11:53;;;;;;;;;;;0.60;99.90;;;;;;4982564;28;19934;-65
2024/03/09 05:14:25;;;;;;;;;;;0.50;99.90;;;;;;4990490;28;19926;-64
2024/03/09 05:16:52;;;;;;;;;;;0.50;99.90;;;;;;4983336;28;19948;-63
2024/03/09 05:19:24;;;;;;;;;;;0.40;99.90;;;;;;4977356;28;19930;-64
2024/03/09 05:21:56;;;;;;;;;;;0.40;99.90;;;;;;4979516;28;19926;-64
2024/03/09 05:24:29;;;;;;;;;;;0.30;99.90;;;;;;4973491;28;19934;-64
2024/03/09 05:27:01;;;;;;;;;;;0.20;99.90;;;;;;4980485;28;20024;-64
2024/03/09 05:29:33;;;;;;;;;;;0.10;99.90;;;;;;4985185;28;19929;-64
2024/03/09 05:32:05;;;;;;;;;;;0.10;99.90;;;;;;4984358;28;19927;-64
2024/03/09 05:34:37;;;;;;;;;;;0.10;99.90;;;;;;4973096;28;19981;-64
2024/03/09 05:37:09;;;;;;;;;;;0.10;99.90;;;;;;4985807;28;19925;-64
2024/03/09 05:39:41;;;;;;;;;;;0.20;99.90;;;;;;4986814;28;19930;-64
2024/03/09 05:42:08;;;;;;;;;;;0.20;99.90;;;;;;4978959;28;20387;-64
2024/03/09 05:44:39;;;;;;;;;;;0.20;99.90;;;;;;4981308;28;19925;-63
2024/03/09 05:47:06;;;;;;;;;;;0.20;99.90;;;;;;4983410;28;20413;-64
2024/03/09 05:49:38;;;;;;;;;;;0.20;99.90;;;;;;4980442;28;19930;-64
2024/03/09 05:52:05;;;;;;;;;;;0.20;99.90;;;;;;4983116;28;19936;-64
2024/03/09 05:54:33;;;;;;;;;;;0.20;99.90;;;;;;4983903;28;20041;-64
2024/03/09 05:57:05;;;;;;;;;;;0.30;99.90;;;;;;4982487;28;19926;-64
2024/03/09 05:59:37;;;;;;;;;;;0.30;99.90;;;;;;4974324;28;19933;-64
2024/03/09 06:02:09;;;;;;;;;;;0.30;99.90;;;;;;4974453;28;20032;-64
2024/03/09 06:04:36;;;;;;;;;;;0.30;99.90;;;;;;4983468;28;19930;-64
2024/03/09 06:07:02;;;;;;;;;;;0.40;99.90;;;;;;4979100;28;20121;-64
2024/03/09 06:09:34;;;;;;;;;;;0.30;99.90;;;;;;4988797;28;20313;-64
2024/03/09 06:12:06;;;;;;;;;;;0.30;99.90;;;;;;4979159;28;20402;-64
2024/03/09 06:14:38;;;;;;;;;;;0.30;99.90;;;;;;4980265;28;19929;-64
2024/03/09 06:17:11;;;;;;;;;;;0.20;99.90;;;;;;4982262;28;19930;-64
2024/03/09 06:19:43;;;;;;;;;;;0.30;99.90;;;;;;4980590;28;19961;-64
2024/03/09 06:22:15;;;;;;;;;;;0.30;99.90;;;;;;4982857;28;19926;-64
2024/03/09 06:24:41;;;;;;;;;;;0.20;99.90;;;;;;4972874;28;19930;-63
2024/03/09 06:27:13;;;;;;;;;;;0.20;99.90;;;;;;4983899;28;19973;-63
2024/03/09 06:29:45;;;;;;;;;;;0.30;99.90;;;;;;4981109;28;19930;-64
2024/03/09 06:32:17;;;;;;;;;;;0.30;99.90;;;;;;4984454;28;20497;-63
2024/03/09 06:34:50;;;;;;;;;;;0.30;99.90;;;;;;4965715;28;20025;-63
2024/03/09 06:37:22;;;;;;;;;;;0.30;99.90;;;;;;4976513;28;19930;-63
2024/03/09 06:39:54;;;;;;;;;;;0.30;99.90;;;;;;4984097;28;19932;-63
2024/03/09 06:42:26;;;;;;;;;;;0.40;99.90;;;;;;4983318;28;20021;-63
2024/03/09 06:44:57;;;;;;;;;;;0.40;99.90;;;;;;4988472;28;20021;-63
2024/03/09 06:47:31;;;;;;;;;;;0.40;99.90;;;;;;4982993;28;19933;-63
2024/03/09 06:50:04;;;;;;;;;;;0.40;99.90;;;;;;4984113;28;19953;-63
2024/03/09 06:52:37;;;;;;;;;;;0.50;99.90;;;;;;4982919;28;20390;-63
2024/03/09 06:55:09;;;;;;;;;;;0.50;99.90;;;;;;4979310;28;19926;-63
2024/03/09 06:57:41;;;;;;;;;;;0.50;99.90;;;;;;4991304;28;19949;-63
2024/03/09 07:00:14;;;;;;;;;;;0.60;99.90;;;;;;4987982;28;20312;-63
2024/03/09 07:02:49;;;;;;;;;;;0.60;99.90;;;;;;4981980;28;19940;-63
2024/03/09 07:05:21;;;;;;;;;;;0.70;99.90;;;;;;4983559;28;19937;-63
2024/03/09 07:07:54;;;;;;;;;;;0.70;99.90;;;;;;4974961;28;19933;-63
2024/03/09 07:10:21;;;;;;;;;;;0.70;99.90;;;;;;4978057;28;20378;-63
2024/03/09 07:12:48;;;;;;;;;;;0.70;99.90;;;;;;4986837;28;20028;-63
2024/03/09 07:15:15;;;;;;;;;;;0.80;99.90;;;;;;4987169;28;20397;-63
2024/03/09 07:17:48;;;;;;;;;;;0.80;99.90;;;;;;4987791;28;19926;-64
2024/03/09 07:20:23;;;;;;;;;;;0.90;99.90;;;;;;4978212;28;20404;-63
2024/03/09 07:22:50;;;;;;;;;;;0.90;99.90;;;;;;4987613;28;20357;-63
2024/03/09 07:25:23;;;;;;;;;;;0.90;99.90;;;;;;4985727;28;20008;-63
2024/03/09 07:27:56;;;;;;;;;;;1.10;99.90;;;;;;4974455;28;19936;-63
2024/03/09 07:30:28;;;;;;;;;;;1.10;99.90;;;;;;4980797;28;19925;-63
2024/03/09 07:33:00;;;;;;;;;;;1.20;99.90;;;;;;4988751;28;20025;-63
2024/03/09 07:35:34;;;;;;;;;;;1.20;99.90;;;;;;4990112;28;19933;-63
2024/03/09 07:38:05;;;;;;;;;;;1.20;99.90;;;;;;4983624;28;20379;-63
2024/03/09 07:40:40;;;;;;;;;;;1.30;99.90;;;;;;4985339;28;19937;-64
2024/03/09 07:43:17;;;;;;;;;;;1.40;99.90;;;;;;4984164;28;19966;-63
2024/03/09 07:45:49;;;;;;;;;;;1.40;99.90;;;;;;4989222;28;19961;-63
2024/03/09 07:48:21;;;;;;;;;;;1.50;99.90;;;;;;4984993;28;19933;-64
2024/03/09 07:50:48;;;;;;;;;;;1.60;99.90;;;;;;4984298;28;19930;-63
2024/03/09 07:53:15;;;;;;;;;;;1.70;99.90;;;;;;4982388;28;19936;-63
2024/03/09 07:55:47;;;;;;;;;;;1.70;99.90;;;;;;4971704;28;19969;-63
2024/03/09 07:58:14;;;;;;;;;;;1.80;99.90;;;;;;4984812;28;20454;-62
2024/03/09 08:00:45;;;;;;;;;;;1.80;99.90;;;;;;4981825;28;19950;-64
2024/03/09 08:03:17;;;;;;;;;;;1.90;99.90;;;;;;4974523;28;19936;-63
2024/03/09 08:05:50;;;;;;;;;;;1.90;99.90;;;;;;4971699;28;19988;-64
2024/03/09 08:08:22;;;;;;;;;;;2.00;99.90;;;;;;4978542;28;19926;-64
2024/03/09 08:10:55;;;;;;;;;;;2.10;99.90;;;;;;4978562;28;19934;-64
2024/03/09 08:13:26;;;;;;;;;;;2.20;99.90;;;;;;4992482;28;19941;-64
2024/03/09 08:15:53;;;;;;;;;;;2.30;99.90;;;;;;4990648;28;19932;-64
2024/03/09 08:18:25;;;;;;;;;;;2.40;99.90;;;;;;4987583;28;19980;-64
2024/03/09 08:20:52;;;;;;;;;;;2.50;99.90;;;;;;4988524;28;20458;-64
2024/03/09 08:23:24;;;;;;;;;;;2.50;99.90;;;;;;4989455;28;20017;-64
2024/03/09 08:25:58;;;;;;;;;;;2.60;99.90;;;;;;4975056;28;19999;-64
2024/03/09 08:28:32;;;;;;;;;;;2.60;99.90;;;;;;4979881;28;19932;-64
2024/03/09 08:30:59;;;;;;;;;;;2.70;99.90;;;;;;4983658;28;20367;-64
2024/03/09 08:33:31;;;;;;;;;;;2.90;99.90;;;;;;4992727;28;19930;-64
2024/03/09 08:36:05;;;;;;;;;;;3.00;99.90;;;;;;4988180;28;19977;-64
2024/03/09 08:38:32;;;;;;;;;;;3.10;99.90;;;;;;4990077;28;19941;-64
2024/03/09 08:41:04;;;;;;;;;;;3.20;99.90;;;;;;4985900;28;19933;-64
2024/03/09 08:43:35;;;;;;;;;;;3.30;99.90;;;;;;4968015;28;19926;-64
2024/03/09 08:46:07;;;;;;;;;;;3.40;99.90;;;;;;4974109;28;19933;-64
2024/03/09 08:48:39;;;;;;;;;;;3.50;99.90;;;;;;4984878;28;20024;-63
2024/03/09 08:51:11;;;;;;;;;;;3.60;99.90;;;;;;4987021;28;19930;-64
2024/03/09 08:53:38;;;;;;;;;;;3.70;99.90;;;;;;4964561;28;19934;-64
2024/03/09 08:56:05;;;;;;;;;;;3.80;99.90;;;;;;4982317;28;20404;-64
2024/03/09 08:58:38;;;;;;;;;;;3.90;99.90;;;;;;4971375;28;19930;-64
2024/03/09 09:01:10;;;;;;;;;;;4.00;99.90;;;;;;4974125;28;19926;-64
2024/03/09 09:03:42;;;;;;;;;;;4.10;99.90;;;;;;4986959;28;20015;-64
2024/03/09 09:06:17;;;;;;;;;;;4.20;99.90;;;;;;4986190;28;19992;-64
2024/03/09 09:08:51;;;;;;;;;;;4.30;99.90;;;;;;4988819;28;19926;-64
2024/03/09 09:11:23;;;;;;;;;;;4.50;99.90;;;;;;4989137;28;19973;-64
2024/03/09 09:13:54;;;;;;;;;;;4.60;99.90;;;;;;4979952;28;19952;-64
2024/03/09 09:16:26;;;;;;;;;;;4.70;99.90;;;;;;4986212;28;20417;-64
2024/03/09 09:18:58;;;;;;;;;;;4.80;99.90;;;;;;4981792;28;20016;-63
2024/03/09 09:21:31;;;;;;;;;;;4.90;99.90;;;;;;4979766;28;19941;-64
2024/03/09 09:24:04;;;;;;;;;;;5.00;99.90;;;;;;4993585;28;19980;-63
2024/03/09 09:26:36;;;;;;;;;;;5.10;99.90;;;;;;4979164;28;19926;-63
2024/03/09 09:29:04;;;;;;;;;;;5.20;99.90;;;;;;4995993;28;20302;-64
2024/03/09 09:31:36;;;;;;;;;;;5.30;99.90;;;;;;4981836;28;19933;-64
2024/03/09 09:34:10;;;;;;;;;;;5.50;99.90;;;;;;4989751;28;20008;-64
2024/03/09 09:36:45;;;;;;;;;;;5.60;99.90;;;;;;4995737;28;20040;-64
2024/03/09 09:39:14;;;;;;;;;;;5.80;99.90;;;;;;4996884;28;20451;-63
2024/03/09 09:41:45;;;;;;;;;;;5.90;99.90;;;;;;4979600;28;19962;-63
2024/03/09 09:44:17;;;;;;;;;;;6.10;99.90;;;;;;4993509;28;19930;-63
2024/03/09 09:46:52;;;;;;;;;;;6.20;99.90;;;;;;4995899;28;19926;-63
2024/03/09 09:49:24;;;;;;;;;;;6.30;99.90;;;;;;4984877;28;19926;-65
2024/03/09 09:51:52;;;;;;;;;;;6.50;99.90;;;;;;4982981;28;20016;-63
2024/03/09 09:54:26;;;;;;;;;;;6.60;99.90;;;;;;4978391;28;19925;-64
2024/03/09 09:56:58;;;;;;;;;;;6.80;99.90;;;;;;4973097;28;19981;-63
2024/03/09 09:59:30;;;;;;;;;;;6.90;99.90;;;;;;4970320;28;20021;-64
2024/03/09 10:02:03;;;;;;;;;;;7.00;99.90;;;;;;4974439;28;19926;-64
2024/03/09 10:04:30;;;;;;;;;;;7.10;99.90;;;;;;4985439;28;19926;-64
2024/03/09 10:07:07;;;;;;;;;;;7.20;99.90;;;;;;4981061;28;20024;-63
2024/03/09 10:09:39;;;;;;;;;;;7.20;99.90;;;;;;4986180;28;20350;-63
2024/03/09 10:12:23;;;;;;;;;;;7.30;99.90;;;;;;4973454;28;20032;-64
2024/03/09 10:14:57;;;;;;;;;;;7.50;99.90;;;;;;4986970;28;19988;-63
2024/03/09 10:17:28;;;;;;;;;;;7.70;99.90;;;;;;4975525;28;20016;-65
2024/03/09 10:20:02;;;;;;;;;;;7.90;99.90;;;;;;4983666;28;20452;-64
2024/03/09 10:22:34;;;;;;;;;;;8.00;99.90;;;;;;4988496;28;19940;-64
2024/03/09 10:25:08;;;;;;;;;;;8.20;99.90;;;;;;4989158;28;19925;-63
2024/03/09 10:27:40;;;;;;;;;;;8.30;99.90;;;;;;4984395;28;19929;-63
2024/03/09 10:30:12;;;;;;;;;;;8.50;99.90;;;;;;4977310;28;20059;-64
2024/03/09 10:32:43;;;;;;;;;;;8.60;99.90;;;;;;4995950;28;20025;-64
2024/03/09 10:35:15;;;;;;;;;;;8.80;99.90;;;;;;4985439;28;19925;-62
2024/03/09 10:37:50;;;;;;;;;;;8.90;99.90;;;;;;4986044;28;20013;-63
2024/03/09 10:40:26;;;;;;;;;;;9.10;99.90;;;;;;4989280;28;20294;-63
2024/03/09 10:42:59;;;;;;;;;;;9.20;99.90;;;;;;4984540;28;20564;-64
2024/03/09 10:45:33;;;;;;;;;;;9.30;99.90;;;;;;4986264;28;19932;-64
2024/03/09 10:48:09;;;;;;;;;;;9.50;99.90;;;;;;4992591;28;20020;-64
2024/03/09 10:50:51;;;;;;;;;;;9.60;99.90;;;;;;4973039;28;20012;-64
2024/03/09 10:53:38;;;;;;;;;;;9.70;99.90;;;;;;4987329;28;19961;-64
2024/03/09 10:56:17;;;;;;;;;;;9.90;99.90;;;;;;4992139;28;19947;-64
2024/03/09 10:58:45;;;;;;;;;;;10.00;99.90;;;;;;4989825;28;19929;-64
2024/03/09 11:01:19;;;;;;;;;;;10.20;99.90;;;;;;4985277;28;19925;-62
2024/03/09 11:03:49;;;;;;;;;;;10.30;99.90;;;;;;4990101;28;19925;-64
2024/03/09 11:06:21;;;;;;;;;;;10.40;99.90;;;;;;4988981;28;19934;-64
2024/03/09 11:08:50;;;;;;;;;;;10.50;99.90;;;;;;4991017;28;20283;-64
2024/03/09 11:11:23;;;;;;;;;;;10.60;99.90;;;;;;4978341;28;19929;-64
2024/03/09 11:13:54;;;;;;;;;;;10.70;99.90;;;;;;4989546;28;20533;-64
2024/03/09 11:16:28;;;;;;;;;;;10.90;99.90;;;;;;4988580;28;19945;-64
2024/03/09 11:19:01;;;;;;;;;;;11.00;99.90;;;;;;4990446;28;19925;-63
2024/03/09 11:21:34;;;;;;;;;;;11.20;99.90;;;;;;4991100;28;19932;-65
2024/03/09 11:24:11;;;;;;;;;;;11.30;99.90;;;;;;4995063;28;19926;-65
2024/03/09 11:26:52;;;;;;;;;;;11.40;99.90;;;;;;4989636;28;19926;-65
2024/03/09 11:29:28;;;;;;;;;;;11.50;99.90;;;;;;4996093;28;19929;-65
2024/03/09 11:31:58;;;;;;;;;;;11.60;99.90;;;;;;4988723;28;19977;-63
2024/03/09 11:34:30;;;;;;;;;;;11.70;99.90;;;;;;4988961;28;19932;-62
2024/03/09 11:37:01;;;;;;;;;;;11.90;99.90;;;;;;4991317;28;20008;-62
2024/03/09 11:39:32;;;;;;;;;;;12.00;99.90;;;;;;4988845;28;19930;-63
2024/03/09 11:42:18;;;;;;;;;;;12.10;99.90;;;;;;4973140;28;19927;-62
2024/03/09 11:44:49;;;;;;;;;;;12.20;99.90;;;;;;4988831;28;19932;-62
2024/03/09 11:47:21;;;;;;;;;;;12.30;99.90;;;;;;4988783;28;19941;-62
2024/03/09 11:49:53;;;;;;;;;;;12.40;99.90;;;;;;4988592;28;19961;-62
2024/03/09 11:52:26;;;;;;;;;;;12.50;99.90;;;;;;4982773;28;19932;-62
2024/03/09 11:55:04;;;;;;;;;;;12.60;99.90;;;;;;4979870;28;19933;-62
2024/03/09 11:57:38;;;;;;;;;;;12.70;99.90;;;;;;4986015;28;20397;-62
2024/03/09 12:00:10;;;;;;;;;;;12.80;99.90;;;;;;4968926;28;19933;-62
2024/03/09 12:02:42;;;;;;;;;;;12.90;99.90;;;;;;4987869;28;19933;-62
2024/03/09 12:05:16;;;;;;;;;;;12.90;99.90;;;;;;4992998;28;19930;-62
2024/03/09 12:07:49;;;;;;;;;;;13.10;99.90;;;;;;4986762;28;19984;-62
2024/03/09 12:10:21;;;;;;;;;;;13.20;99.90;;;;;;4984808;28;20032;-62
2024/03/09 12:12:53;;;;;;;;;;;13.30;99.90;;;;;;4985216;28;19929;-62
2024/03/09 12:15:24;;;;;;;;;;;13.40;99.90;;;;;;4985863;28;19995;-61
2024/03/09 12:17:57;;;;;;;;;;;13.40;99.90;;;;;;4995162;28;19926;-62
2024/03/09 12:20:29;;;;;;;;;;;13.50;99.90;;;;;;4998116;28;19929;-61
2024/03/09 12:23:01;;;;;;;;;;;13.60;99.90;;;;;;4979757;28;20309;-61
2024/03/09 12:25:34;;;;;;;;;;;13.70;99.90;;;;;;4978382;28;19965;-62
2024/03/09 12:28:06;;;;;;;;;;;13.80;99.90;;;;;;4992779;28;19997;-62
2024/03/09 12:30:39;;;;;;;;;;;13.90;99.90;;;;;;4993084;28;19936;-62
2024/03/09 12:33:11;;;;;;;;;;;14.00;99.90;;;;;;4993304;28;20009;-63
2024/03/09 12:35:44;;;;;;;;;;;14.00;99.90;;;;;;4996576;28;19932;-63
2024/03/09 12:38:16;;;;;;;;;;;14.00;99.90;;;;;;4999289;28;19933;-63
2024/03/09 12:40:48;;;;;;;;;;;14.00;99.90;;;;;;4995439;28;19926;-63
2024/03/09 12:43:23;;;;;;;;;;;14.00;99.90;;;;;;5001008;28;19973;-63
2024/03/09 12:45:55;;;;;;;;;;;14.00;99.90;;;;;;4989117;28;20557;-63
2024/03/09 12:48:28;;;;;;;;;;;14.00;99.90;;;;;;4975731;28;19930;-63
2024/03/09 12:50:55;;;;;;;;;;;14.10;99.90;;;;;;4982395;28;19930;-63
2024/03/09 12:53:27;;;;;;;;;;;14.10;99.90;;;;;;4987214;28;20361;-63
2024/03/09 12:56:04;;;;;;;;;;;14.20;99.90;;;;;;4984354;28;19942;-63
2024/03/09 12:58:32;;;;;;;;;;;14.30;99.90;;;;;;4986084;28;20509;-63
2024/03/09 13:00:59;;;;;;;;;;;14.20;99.90;;;;;;4977140;28;19961;-64
2024/03/09 13:03:32;;;;;;;;;;;14.30;99.90;;;;;;4988570;28;19926;-62
2024/03/09 13:06:07;;;;;;;;;;;14.40;99.90;;;;;;4966231;28;20413;-63
2024/03/09 13:08:43;;;;;;;;;;;14.40;99.90;;;;;;4988588;28;19930;-63
2024/03/09 13:11:20;;;;;;;;;;;14.50;99.90;;;;;;4982319;28;19926;-63
2024/03/09 13:13:51;;;;;;;;;;;14.50;99.90;;;;;;4983018;28;19932;-63
2024/03/09 13:16:23;;;;;;;;;;;14.60;99.90;;;;;;4981670;28;19934;-63
2024/03/09 13:18:55;;;;;;;;;;;14.60;99.90;;;;;;4983305;28;19961;-62
2024/03/09 13:21:27;;;;;;;;;;;14.70;99.90;;;;;;4987383;28;19964;-63
2024/03/09 13:23:59;;;;;;;;;;;14.60;99.90;;;;;;4981592;28;19935;-63
2024/03/09 13:26:33;;;;;;;;;;;14.70;99.90;;;;;;4967431;28;20032;-62
2024/03/09 13:29:06;;;;;;;;;;;14.70;99.90;;;;;;4972080;28;19964;-62
2024/03/09 13:31:38;;;;;;;;;;;14.70;99.90;;;;;;4985581;28;20357;-63
2024/03/09 13:34:16;;;;;;;;;;;14.80;99.90;;;;;;4986538;28;20337;-63
2024/03/09 13:36:48;;;;;;;;;;;14.80;99.90;;;;;;4972458;28;19936;-63
2024/03/09 13:39:26;;;;;;;;;;;14.70;99.90;;;;;;4985331;28;19930;-63
2024/03/09 13:41:58;;;;;;;;;;;14.70;99.90;;;;;;4974789;28;20540;-63
2024/03/09 13:44:30;;;;;;;;;;;14.60;99.90;;;;;;4978228;28;19973;-63
2024/03/09 13:46:59;;;;;;;;;;;14.60;99.90;;;;;;4983203;28;20299;-63
2024/03/09 13:49:31;;;;;;;;;;;14.60;99.90;;;;;;4985774;28;19929;-62
2024/03/09 13:52:03;;;;;;;;;;;14.50;99.90;;;;;;4967769;28;19932;-62
2024/03/09 13:54:35;;;;;;;;;;;14.50;99.90;;;;;;4983525;28;19929;-62
2024/03/09 13:57:07;;;;;;;;;;;14.50;99.90;;;;;;4984475;28;19933;-62
2024/03/09 13:59:42;;;;;;;;;;;14.50;99.90;;;;;;4981722;28;19933;-63
2024/03/09 14:02:14;;;;;;;;;;;14.50;99.90;;;;;;4973112;28;19965;-63
2024/03/09 14:04:47;;;;;;;;;;;14.60;99.90;;;;;;4987127;28;19953;-63
2024/03/09 14:07:14;;;;;;;;;;;14.70;99.90;;;;;;4982340;28;20008;-61
2024/03/09 14:09:49;;;;;;;;;;;14.80;99.90;;;;;;4990654;28;19930;-62
2024/03/09 14:12:21;;;;;;;;;;;14.90;99.90;;;;;;4966906;28;19934;-62
2024/03/09 14:14:54;;;;;;;;;;;15.00;99.90;;;;;;4988984;28;19926;-65
2024/03/09 14:17:25;;;;;;;;;;;15.10;99.90;;;;;;4975748;28;19926;-64
2024/03/09 14:20:01;;;;;;;;;;;15.30;99.90;;;;;;4988285;28;20397;-64
2024/03/09 14:22:34;;;;;;;;;;;15.30;99.90;;;;;;4982382;28;19926;-62
2024/03/09 14:25:10;;;;;;;;;;;15.30;99.90;;;;;;4992640;28;19926;-62
2024/03/09 14:27:42;;;;;;;;;;;15.20;99.90;;;;;;4986475;28;19926;-73
2024/03/09 14:30:10;;;;;;;;;;;15.10;99.90;;;;;;4980108;28;20383;-62
2024/03/09 14:32:46;;;;;;;;;;;14.90;99.90;;;;;;4981241;28;20426;-62
2024/03/09 14:35:18;;;;;;;;;;;14.80;99.90;;;;;;4975717;28;19934;-62
2024/03/09 14:37:52;;;;;;;;;;;14.70;99.90;;;;;;4983924;28;19930;-62
2024/03/09 14:40:24;;;;;;;;;;;14.60;99.90;;;;;;4989626;28;19934;-62
2024/03/09 14:42:51;;;;;;;;;;;14.50;99.90;;;;;;4988299;28;20342;-62
2024/03/09 14:45:23;;;;;;;;;;;14.50;99.90;;;;;;4989621;28;19936;-62
2024/03/09 14:48:04;;;;;;;;;;;14.50;99.90;;;;;;4978771;28;19930;-62
2024/03/09 14:50:36;;;;;;;;;;;14.50;99.90;;;;;;4989503;28;19932;-64
2024/03/09 14:53:13;;;;;;;;;;;14.50;99.90;;;;;;4992467;28;19937;-64
2024/03/09 14:55:44;;;;;;;;;;;14.50;99.90;;;;;;4971540;28;19930;-64